sensor_id;sensor_type;location;lat;lon;timestamp;temperature;humidity
2825;DHT22;1420;51.324;12.344;2022-11-21T00:01:42;-0.20;99.90
2825;DHT22;1420;51.324;12.344;2022-11-21T00:04:09;-0.30;99.90
2825;DHT22;1420;51.324;12.344;2022-11-21T00:06:36;-0.20;99.90
2825;DHT22;1420;51.324;12.344;2022-11-21T00:09:03;-0.10;99.90
2825;DHT22;1420;51.324;12.344;2022-11-21T00:11:31;-0.20;99.90
2825;DHT22;1420;51.324;12.344;2022-11-21T00:13:58;-0.10;99.90
2825;DHT22;1420;51.324;12.344;2022-11-21T00:16:25;-0.10;99.90
2825;DHT22;1420;51.324;12.344;2022-11-21T00:18:52;-0.10;99.90
2825;DHT22;1420;51.324;12.344;2022-11-21T00:21:19;0.00;99.90
2825;DHT22;1420;51.324;12.344;2022-11-21T00:23:47;-0.10;99.90
2825;DHT22;1420;51.324;12.344;2022-11-21T00:26:14;-0.10;99.90
2825;DHT22;1420;51.324;12.344;2022-11-21T00:28:41;-0.10;99.90
2825;DHT22;1420;51.324;12.344;2022-11-21T00:31:08;-0.10;99.90
2825;DHT22;1420;51.324;12.344;2022-11-21T00:33:36;0.00;99.90
2825;DHT22;1420;51.324;12.344;2022-11-21T00:36:06;0.00;99.90
2825;DHT22;1420;51.324;12.344;2022-11-21T00:38:33;0.00;99.90
2825;DHT22;1420;51.324;12.344;2022-11-21T00:41:00;0.00;99.90
2825;DHT22;1420;51.324;12.344;2022-11-21T00:43:28;0.10;99.90
2825;DHT22;1420;51.324;12.344;2022-11-21T00:45:55;0.10;99.90
2825;DHT22;1420;51.324;12.344;2022-11-21T00:48:22;0.10;99.90
2825;DHT22;1420;51.324;12.344;2022-11-21T00:50:50;0.30;99.90
2825;DHT22;1420;51.324;12.344;2022-11-21T00:53:18;0.20;99.90
2825;DHT22;1420;51.324;12.344;2022-11-21T00:55:46;0.20;99.90
2825;DHT22;1420;51.324;12.344;2022-11-21T00:58:14;0.20;99.90
2825;DHT22;1420;51.324;12.344;2022-11-21T01:00:41;0.20;99.90
2825;DHT22;1420;51.324;12.344;2022-11-21T01:03:09;0.30;99.90
2825;DHT22;1420;51.324;12.344;2022-11-21T01:05:36;0.30;99.90
2825;DHT22;1420;51.324;12.344;2022-11-21T01:08:03;0.30;99.90
2825;DHT22;1420;51.324;12.344;2022-11-21T01:10:32;0.60;99.90
2825;DHT22;1420;51.324;12.344;2022-11-21T01:12:58;0.50;99.90
2825;DHT22;1420;51.324;12.344;2022-11-21T01:15:26;0.40;99.90
2825;DHT22;1420;51.324;12.344;2022-11-21T01:17:53;0.40;99.90
2825;DHT22;1420;51.324;12.344;2022-11-21T01:20:20;0.30;99.90
2825;DHT22;1420;51.324;12.344;2022-11-21T01:22:47;0.40;99.90
2825;DHT22;1420;51.324;12.344;2022-11-21T01:25:15;0.40;99.90
2825;DHT22;1420;51.324;12.344;2022-11-21T01:27:43;0.40;99.90
2825;DHT22;1420;51.324;12.344;2022-11-21T01:30:11;0.50;99.90
2825;DHT22;1420;51.324;12.344;2022-11-21T01:32:38;0.50;99.90
2825;DHT22;1420;51.324;12.344;2022-11-21T01:35:06;0.60;99.90
2825;DHT22;1420;51.324;12.344;2022-11-21T01:37:33;0.50;99.90
2825;DHT22;1420;51.324;12.344;2022-11-21T01:40:01;0.50;99.90
2825;DHT22;1420;51.324;12.344;2022-11-21T01:42:28;0.50;99.90
2825;DHT22;1420;51.324;12.344;2022-11-21T01:44:55;0.60;99.90
2825;DHT22;1420;51.324;12.344;2022-11-21T01:47:22;0.60;99.90
2825;DHT22;1420;51.324;12.344;2022-11-21T01:49:50;0.50;99.90
2825;DHT22;1420;51.324;12.344;2022-11-21T01:52:28;0.60;99.90
2825;DHT22;1420;51.324;12.344;2022-11-21T01:54:59;0.70;99.90
2825;DHT22;1420;51.324;12.344;2022-11-21T01:57:28;0.80;99.90
2825;DHT22;1420;51.324;12.344;2022-11-21T01:59:57;0.70;99.90
2825;DHT22;1420;51.324;12.344;2022-11-21T02:02:23;0.70;99.90
2825;DHT22;1420;51.324;12.344;2022-11-21T02:04:50;0.50;99.90
2825;DHT22;1420;51.324;12.344;2022-11-21T02:07:18;0.70;99.90
2825;DHT22;1420;51.324;12.344;2022-11-21T02:09:45;0.70;99.90
2825;DHT22;1420;51.324;12.344;2022-11-21T02:12:24;0.60;99.90
2825;DHT22;1420;51.324;12.344;2022-11-21T02:14:52;0.60;99.90
2825;DHT22;1420;51.324;12.344;2022-11-21T02:17:19;0.60;99.90
2825;DHT22;1420;51.324;12.344;2022-11-21T02:19:51;0.80;99.90
2825;DHT22;1420;51.324;12.344;2022-11-21T02:22:20;0.60;99.90
2825;DHT22;1420;51.324;12.344;2022-11-21T02:24:46;0.60;99.90
2825;DHT22;1420;51.324;12.344;2022-11-21T02:27:12;0.60;99.90
2825;DHT22;1420;51.324;12.344;2022-11-21T02:29:39;0.50;99.90
2825;DHT22;1420;51.324;12.344;2022-11-21T02:32:07;0.70;99.90
2825;DHT22;1420;51.324;12.344;2022-11-21T02:34:34;0.80;99.90
2825;DHT22;1420;51.324;12.344;2022-11-21T02:37:01;0.70;99.90
2825;DHT22;1420;51.324;12.344;2022-11-21T02:39:31;0.60;99.90
2825;DHT22;1420;51.324;12.344;2022-11-21T02:42:02;0.70;99.90
2825;DHT22;1420;51.324;12.344;2022-11-21T02:44:28;0.70;99.90
2825;DHT22;1420;51.324;12.344;2022-11-21T02:46:55;0.70;99.90
2825;DHT22;1420;51.324;12.344;2022-11-21T02:49:27;0.80;99.90
2825;DHT22;1420;51.324;12.344;2022-11-21T02:51:51;0.90;99.90
2825;DHT22;1420;51.324;12.344;2022-11-21T02:54:18;0.80;99.90
2825;DHT22;1420;51.324;12.344;2022-11-21T02:56:46;0.90;99.90
2825;DHT22;1420;51.324;12.344;2022-11-21T02:59:13;0.70;99.90
2825;DHT22;1420;51.324;12.344;2022-11-21T03:01:40;0.60;99.90
2825;DHT22;1420;51.324;12.344;2022-11-21T03:04:07;0.70;99.90
2825;DHT22;1420;51.324;12.344;2022-11-21T03:06:34;0.90;99.90
2825;DHT22;1420;51.324;12.344;2022-11-21T03:09:02;1.00;99.90
2825;DHT22;1420;51.324;12.344;2022-11-21T03:11:29;0.90;99.90
2825;DHT22;1420;51.324;12.344;2022-11-21T03:13:56;0.90;99.90
2825;DHT22;1420;51.324;12.344;2022-11-21T03:16:23;0.90;99.90
2825;DHT22;1420;51.324;12.344;2022-11-21T03:18:51;0.60;99.90
2825;DHT22;1420;51.324;12.344;2022-11-21T03:21:19;0.70;99.90
2825;DHT22;1420;51.324;12.344;2022-11-21T03:23:46;0.60;99.90
2825;DHT22;1420;51.324;12.344;2022-11-21T03:26:14;0.70;99.90
2825;DHT22;1420;51.324;12.344;2022-11-21T03:28:42;0.60;99.90
2825;DHT22;1420;51.324;12.344;2022-11-21T03:31:10;0.50;99.90
2825;DHT22;1420;51.324;12.344;2022-11-21T03:33:38;0.50;99.90
2825;DHT22;1420;51.324;12.344;2022-11-21T03:36:06;0.40;99.90
2825;DHT22;1420;51.324;12.344;2022-11-21T03:38:33;0.40;99.90
2825;DHT22;1420;51.324;12.344;2022-11-21T03:41:03;0.30;99.90
2825;DHT22;1420;51.324;12.344;2022-11-21T03:43:29;0.40;99.90
2825;DHT22;1420;51.324;12.344;2022-11-21T03:45:57;0.30;99.90
2825;DHT22;1420;51.324;12.344;2022-11-21T03:48:25;0.20;99.90
2825;DHT22;1420;51.324;12.344;2022-11-21T03:50:52;0.20;99.90
2825;DHT22;1420;51.324;12.344;2022-11-21T03:53:19;0.20;99.90
2825;DHT22;1420;51.324;12.344;2022-11-21T03:55:46;0.20;99.90
2825;DHT22;1420;51.324;12.344;2022-11-21T03:58:14;0.00;99.90
2825;DHT22;1420;51.324;12.344;2022-11-21T04:00:41;0.00;99.90
2825;DHT22;1420;51.324;12.344;2022-11-21T04:03:08;0.00;99.90
2825;DHT22;1420;51.324;12.344;2022-11-21T04:05:36;-0.10;99.90
2825;DHT22;1420;51.324;12.344;2022-11-21T04:08:04;-0.30;99.90
2825;DHT22;1420;51.324;12.344;2022-11-21T04:10:31;-0.40;99.90
2825;DHT22;1420;51.324;12.344;2022-11-21T04:12:58;-0.20;99.90
2825;DHT22;1420;51.324;12.344;2022-11-21T04:15:34;-0.20;99.90
2825;DHT22;1420;51.324;12.344;2022-11-21T04:18:01;-0.20;99.90
2825;DHT22;1420;51.324;12.344;2022-11-21T04:20:28;-0.30;99.90
2825;DHT22;1420;51.324;12.344;2022-11-21T04:22:56;-0.40;99.90
2825;DHT22;1420;51.324;12.344;2022-11-21T04:25:23;-0.30;99.90
2825;DHT22;1420;51.324;12.344;2022-11-21T04:27:50;-0.30;99.90
2825;DHT22;1420;51.324;12.344;2022-11-21T04:30:18;-0.40;99.90
2825;DHT22;1420;51.324;12.344;2022-11-21T04:32:45;-0.40;99.90
2825;DHT22;1420;51.324;12.344;2022-11-21T04:35:13;-0.40;99.90
2825;DHT22;1420;51.324;12.344;2022-11-21T04:37:40;-0.50;99.90
2825;DHT22;1420;51.324;12.344;2022-11-21T04:40:07;-0.40;99.90
2825;DHT22;1420;51.324;12.344;2022-11-21T04:42:35;-0.50;99.90
2825;DHT22;1420;51.324;12.344;2022-11-21T04:45:02;-0.50;99.90
2825;DHT22;1420;51.324;12.344;2022-11-21T04:47:29;-0.40;99.90
2825;DHT22;1420;51.324;12.344;2022-11-21T04:49:56;-0.40;99.90
2825;DHT22;1420;51.324;12.344;2022-11-21T04:52:24;-0.30;99.90
2825;DHT22;1420;51.324;12.344;2022-11-21T04:54:51;-0.30;99.90
2825;DHT22;1420;51.324;12.344;2022-11-21T04:57:18;-0.30;99.90
2825;DHT22;1420;51.324;12.344;2022-11-21T04:59:45;-0.40;99.90
2825;DHT22;1420;51.324;12.344;2022-11-21T05:02:13;-0.30;99.90
2825;DHT22;1420;51.324;12.344;2022-11-21T05:04:41;-0.50;99.90
2825;DHT22;1420;51.324;12.344;2022-11-21T05:07:09;-0.50;99.90
2825;DHT22;1420;51.324;12.344;2022-11-21T05:09:38;-0.50;99.90
2825;DHT22;1420;51.324;12.344;2022-11-21T05:12:07;-0.50;99.90
2825;DHT22;1420;51.324;12.344;2022-11-21T05:14:39;-0.50;99.90
2825;DHT22;1420;51.324;12.344;2022-11-21T05:17:07;0.00;99.90
2825;DHT22;1420;51.324;12.344;2022-11-21T05:19:34;0.30;99.90
2825;DHT22;1420;51.324;12.344;2022-11-21T05:22:01;0.00;99.90
2825;DHT22;1420;51.324;12.344;2022-11-21T05:24:28;0.00;99.90
2825;DHT22;1420;51.324;12.344;2022-11-21T05:26:55;0.30;99.90
2825;DHT22;1420;51.324;12.344;2022-11-21T05:29:23;0.10;99.90
2825;DHT22;1420;51.324;12.344;2022-11-21T05:31:50;0.20;99.90
2825;DHT22;1420;51.324;12.344;2022-11-21T05:34:17;0.20;99.90
2825;DHT22;1420;51.324;12.344;2022-11-21T05:36:44;0.40;99.90
2825;DHT22;1420;51.324;12.344;2022-11-21T05:39:11;0.00;99.90
2825;DHT22;1420;51.324;12.344;2022-11-21T05:41:39;0.20;99.90
2825;DHT22;1420;51.324;12.344;2022-11-21T05:44:06;0.30;99.90
2825;DHT22;1420;51.324;12.344;2022-11-21T05:46:33;0.30;99.90
2825;DHT22;1420;51.324;12.344;2022-11-21T05:49:07;0.20;99.90
2825;DHT22;1420;51.324;12.344;2022-11-21T05:51:44;0.30;99.90
2825;DHT22;1420;51.324;12.344;2022-11-21T05:54:18;0.30;99.90
2825;DHT22;1420;51.324;12.344;2022-11-21T05:56:48;0.40;99.90
2825;DHT22;1420;51.324;12.344;2022-11-21T05:59:20;0.30;99.90
2825;DHT22;1420;51.324;12.344;2022-11-21T06:01:53;0.20;99.90
2825;DHT22;1420;51.324;12.344;2022-11-21T06:04:26;0.10;99.90
2825;DHT22;1420;51.324;12.344;2022-11-21T06:06:53;0.40;99.90
2825;DHT22;1420;51.324;12.344;2022-11-21T06:09:21;0.20;99.90
2825;DHT22;1420;51.324;12.344;2022-11-21T06:11:48;0.10;99.90
2825;DHT22;1420;51.324;12.344;2022-11-21T06:14:16;0.20;99.90
2825;DHT22;1420;51.324;12.344;2022-11-21T06:16:46;0.10;99.90
2825;DHT22;1420;51.324;12.344;2022-11-21T06:19:13;0.20;99.90
2825;DHT22;1420;51.324;12.344;2022-11-21T06:21:41;0.20;99.90
2825;DHT22;1420;51.324;12.344;2022-11-21T06:24:09;0.20;99.90
2825;DHT22;1420;51.324;12.344;2022-11-21T06:26:37;0.00;99.90
2825;DHT22;1420;51.324;12.344;2022-11-21T06:29:05;0.00;99.90
2825;DHT22;1420;51.324;12.344;2022-11-21T06:31:32;0.20;99.90
2825;DHT22;1420;51.324;12.344;2022-11-21T06:33:59;-0.10;99.90
2825;DHT22;1420;51.324;12.344;2022-11-21T06:36:26;-0.20;99.90
2825;DHT22;1420;51.324;12.344;2022-11-21T06:38:54;-0.40;99.90
2825;DHT22;1420;51.324;12.344;2022-11-21T06:41:22;-0.40;99.90
2825;DHT22;1420;51.324;12.344;2022-11-21T06:43:48;-0.40;99.90
2825;DHT22;1420;51.324;12.344;2022-11-21T06:46:16;-0.50;99.90
2825;DHT22;1420;51.324;12.344;2022-11-21T06:48:43;-0.60;99.90
2825;DHT22;1420;51.324;12.344;2022-11-21T06:51:12;-0.60;99.90
2825;DHT22;1420;51.324;12.344;2022-11-21T06:53:39;-0.60;99.90
2825;DHT22;1420;51.324;12.344;2022-11-21T06:56:06;-0.60;99.90
2825;DHT22;1420;51.324;12.344;2022-11-21T06:58:34;-0.50;99.90
2825;DHT22;1420;51.324;12.344;2022-11-21T07:01:03;-0.50;99.90
2825;DHT22;1420;51.324;12.344;2022-11-21T07:03:29;-0.50;99.90
2825;DHT22;1420;51.324;12.344;2022-11-21T07:05:58;-0.50;99.90
2825;DHT22;1420;51.324;12.344;2022-11-21T07:08:24;-0.60;99.90
2825;DHT22;1420;51.324;12.344;2022-11-21T07:10:51;-0.40;99.90
2825;DHT22;1420;51.324;12.344;2022-11-21T07:13:19;-0.40;99.90
2825;DHT22;1420;51.324;12.344;2022-11-21T07:15:50;-0.40;99.90
2825;DHT22;1420;51.324;12.344;2022-11-21T07:18:17;-0.40;99.90
2825;DHT22;1420;51.324;12.344;2022-11-21T07:20:44;-0.40;99.90
2825;DHT22;1420;51.324;12.344;2022-11-21T07:23:12;-0.30;99.90
2825;DHT22;1420;51.324;12.344;2022-11-21T07:25:39;-0.40;99.90
2825;DHT22;1420;51.324;12.344;2022-11-21T07:28:07;-0.30;99.90
2825;DHT22;1420;51.324;12.344;2022-11-21T07:30:35;-0.30;99.90
2825;DHT22;1420;51.324;12.344;2022-11-21T07:33:02;-0.30;99.90
2825;DHT22;1420;51.324;12.344;2022-11-21T07:35:29;-0.30;99.90
2825;DHT22;1420;51.324;12.344;2022-11-21T07:37:56;-0.40;99.90
2825;DHT22;1420;51.324;12.344;2022-11-21T07:40:23;-0.30;99.90
2825;DHT22;1420;51.324;12.344;2022-11-21T07:42:50;-0.30;99.90
2825;DHT22;1420;51.324;12.344;2022-11-21T07:45:18;-0.40;99.90
2825;DHT22;1420;51.324;12.344;2022-11-21T07:47:45;-0.30;99.90
2825;DHT22;1420;51.324;12.344;2022-11-21T07:50:12;-0.30;99.90
2825;DHT22;1420;51.324;12.344;2022-11-21T07:52:39;-0.20;99.90
2825;DHT22;1420;51.324;12.344;2022-11-21T07:55:08;-0.40;99.90
2825;DHT22;1420;51.324;12.344;2022-11-21T07:57:35;-0.50;99.90
2825;DHT22;1420;51.324;12.344;2022-11-21T08:00:02;-0.50;99.90
2825;DHT22;1420;51.324;12.344;2022-11-21T08:02:30;-0.40;99.90
2825;DHT22;1420;51.324;12.344;2022-11-21T08:04:57;-0.50;99.90
2825;DHT22;1420;51.324;12.344;2022-11-21T08:07:24;-0.50;99.90
2825;DHT22;1420;51.324;12.344;2022-11-21T08:09:51;-0.40;99.90
2825;DHT22;1420;51.324;12.344;2022-11-21T08:12:19;-0.40;99.90
2825;DHT22;1420;51.324;12.344;2022-11-21T08:14:46;-0.50;99.90
2825;DHT22;1420;51.324;12.344;2022-11-21T08:17:13;-0.50;99.90
2825;DHT22;1420;51.324;12.344;2022-11-21T08:19:41;-0.30;99.90
2825;DHT22;1420;51.324;12.344;2022-11-21T08:22:09;-0.30;99.90
2825;DHT22;1420;51.324;12.344;2022-11-21T08:24:36;-0.40;99.90
2825;DHT22;1420;51.324;12.344;2022-11-21T08:27:03;-0.30;99.90
2825;DHT22;1420;51.324;12.344;2022-11-21T08:29:31;-0.30;99.90
2825;DHT22;1420;51.324;12.344;2022-11-21T08:31:58;-0.40;99.90
2825;DHT22;1420;51.324;12.344;2022-11-21T08:34:25;-0.40;99.90
2825;DHT22;1420;51.324;12.344;2022-11-21T08:36:53;-0.30;99.90
2825;DHT22;1420;51.324;12.344;2022-11-21T08:39:20;-0.30;99.90
2825;DHT22;1420;51.324;12.344;2022-11-21T08:41:48;-0.40;99.90
2825;DHT22;1420;51.324;12.344;2022-11-21T08:44:21;-0.30;99.90
2825;DHT22;1420;51.324;12.344;2022-11-21T08:46:48;-0.40;99.90
2825;DHT22;1420;51.324;12.344;2022-11-21T08:49:16;-0.30;99.90
2825;DHT22;1420;51.324;12.344;2022-11-21T08:51:43;-0.10;99.90
2825;DHT22;1420;51.324;12.344;2022-11-21T08:54:10;-0.20;99.90
2825;DHT22;1420;51.324;12.344;2022-11-21T08:56:37;-0.10;99.90
2825;DHT22;1420;51.324;12.344;2022-11-21T08:59:05;-0.20;99.90
2825;DHT22;1420;51.324;12.344;2022-11-21T09:01:32;-0.20;99.90
2825;DHT22;1420;51.324;12.344;2022-11-21T09:04:00;-0.10;99.90
2825;DHT22;1420;51.324;12.344;2022-11-21T09:06:27;-0.10;99.90
2825;DHT22;1420;51.324;12.344;2022-11-21T09:08:54;0.00;99.90
2825;DHT22;1420;51.324;12.344;2022-11-21T09:11:21;0.00;99.90
2825;DHT22;1420;51.324;12.344;2022-11-21T09:13:49;0.10;99.90
2825;DHT22;1420;51.324;12.344;2022-11-21T09:16:16;0.10;99.90
2825;DHT22;1420;51.324;12.344;2022-11-21T09:18:50;0.10;99.90
2825;DHT22;1420;51.324;12.344;2022-11-21T09:21:18;0.10;99.90
2825;DHT22;1420;51.324;12.344;2022-11-21T09:23:45;0.10;99.90
2825;DHT22;1420;51.324;12.344;2022-11-21T09:26:12;0.30;99.90
2825;DHT22;1420;51.324;12.344;2022-11-21T09:28:39;0.40;99.90
2825;DHT22;1420;51.324;12.344;2022-11-21T09:31:06;0.40;99.90
2825;DHT22;1420;51.324;12.344;2022-11-21T09:33:34;0.50;99.90
2825;DHT22;1420;51.324;12.344;2022-11-21T09:36:01;0.70;99.90
2825;DHT22;1420;51.324;12.344;2022-11-21T09:38:28;0.50;99.90
2825;DHT22;1420;51.324;12.344;2022-11-21T09:41:01;0.50;99.90
2825;DHT22;1420;51.324;12.344;2022-11-21T09:43:33;0.60;99.90
2825;DHT22;1420;51.324;12.344;2022-11-21T09:45:58;0.70;99.90
2825;DHT22;1420;51.324;12.344;2022-11-21T09:48:30;0.60;99.90
2825;DHT22;1420;51.324;12.344;2022-11-21T09:50:59;0.90;99.90
2825;DHT22;1420;51.324;12.344;2022-11-21T09:53:30;0.90;99.90
2825;DHT22;1420;51.324;12.344;2022-11-21T09:55:56;0.90;99.90
2825;DHT22;1420;51.324;12.344;2022-11-21T09:58:46;1.00;99.90
2825;DHT22;1420;51.324;12.344;2022-11-21T10:01:12;1.00;87.50
2825;DHT22;1420;51.324;12.344;2022-11-21T10:03:41;1.00;99.90
2825;DHT22;1420;51.324;12.344;2022-11-21T10:06:18;0.90;52.50
2825;DHT22;1420;51.324;12.344;2022-11-21T10:08:54;1.00;40.60
2825;DHT22;1420;51.324;12.344;2022-11-21T10:11:25;1.00;1.00
2825;DHT22;1420;51.324;12.344;2022-11-21T10:13:58;0.90;49.10
2825;DHT22;1420;51.324;12.344;2022-11-21T10:19:20;0.80;99.90
2825;DHT22;1420;51.324;12.344;2022-11-21T10:22:07;1.00;99.90
2825;DHT22;1420;51.324;12.344;2022-11-21T10:24:52;1.10;97.00
2825;DHT22;1420;51.324;12.344;2022-11-21T10:27:23;1.10;47.50
2825;DHT22;1420;51.324;12.344;2022-11-21T10:29:49;0.90;25.80
2825;DHT22;1420;51.324;12.344;2022-11-21T10:32:26;1.10;10.80
2825;DHT22;1420;51.324;12.344;2022-11-21T10:34:57;1.10;88.40
2825;DHT22;1420;51.324;12.344;2022-11-21T10:37:30;1.20;36.70
2825;DHT22;1420;51.324;12.344;2022-11-21T10:39:57;1.20;33.00
2825;DHT22;1420;51.324;12.344;2022-11-21T10:42:35;0.90;1.00
2825;DHT22;1420;51.324;12.344;2022-11-21T10:45:01;0.90;43.50
2825;DHT22;1420;51.324;12.344;2022-11-21T10:47:34;1.20;50.50
2825;DHT22;1420;51.324;12.344;2022-11-21T10:50:22;1.20;50.30
2825;DHT22;1420;51.324;12.344;2022-11-21T10:52:48;1.10;4.50
2825;DHT22;1420;51.324;12.344;2022-11-21T10:55:15;1.30;46.00
2825;DHT22;1420;51.324;12.344;2022-11-21T10:57:45;1.40;36.30
2825;DHT22;1420;51.324;12.344;2022-11-21T11:00:15;1.50;1.00
2825;DHT22;1420;51.324;12.344;2022-11-21T11:02:41;1.40;1.00
2825;DHT22;1420;51.324;12.344;2022-11-21T11:05:17;1.50;1.00
2825;DHT22;1420;51.324;12.344;2022-11-21T11:08:15;1.60;1.00
2825;DHT22;1420;51.324;12.344;2022-11-21T11:10:26;1.50;1.00
2825;DHT22;1420;51.324;12.344;2022-11-21T11:12:53;1.60;1.00
2825;DHT22;1420;51.324;12.344;2022-11-21T11:15:26;1.50;1.00
2825;DHT22;1420;51.324;12.344;2022-11-21T11:17:56;1.20;1.00
2825;DHT22;1420;51.324;12.344;2022-11-21T11:20:30;1.20;3.20
2825;DHT22;1420;51.324;12.344;2022-11-21T11:22:55;1.30;23.40
2825;DHT22;1420;51.324;12.344;2022-11-21T11:25:22;1.50;1.00
2825;DHT22;1420;51.324;12.344;2022-11-21T11:27:49;1.30;1.00
2825;DHT22;1420;51.324;12.344;2022-11-21T11:30:17;1.30;1.00
2825;DHT22;1420;51.324;12.344;2022-11-21T11:32:44;1.30;1.00
2825;DHT22;1420;51.324;12.344;2022-11-21T11:35:26;1.30;1.00
2825;DHT22;1420;51.324;12.344;2022-11-21T11:38:00;1.40;1.00
2825;DHT22;1420;51.324;12.344;2022-11-21T11:40:37;1.40;1.00
2825;DHT22;1420;51.324;12.344;2022-11-21T11:43:24;1.50;1.00
2825;DHT22;1420;51.324;12.344;2022-11-21T11:46:05;1.60;1.00
2825;DHT22;1420;51.324;12.344;2022-11-21T11:48:35;1.80;1.00
2825;DHT22;1420;51.324;12.344;2022-11-21T11:51:03;1.80;1.00
2825;DHT22;1420;51.324;12.344;2022-11-21T11:53:36;1.70;1.00
2825;DHT22;1420;51.324;12.344;2022-11-21T11:56:19;1.70;1.00
2825;DHT22;1420;51.324;12.344;2022-11-21T11:59:03;1.60;1.00
2825;DHT22;1420;51.324;12.344;2022-11-21T12:01:34;1.70;1.00
2825;DHT22;1420;51.324;12.344;2022-11-21T12:04:11;1.60;1.00
2825;DHT22;1420;51.324;12.344;2022-11-21T12:06:46;1.60;1.00
2825;DHT22;1420;51.324;12.344;2022-11-21T12:09:22;1.70;1.00
2825;DHT22;1420;51.324;12.344;2022-11-21T12:11:55;1.70;1.00
2825;DHT22;1420;51.324;12.344;2022-11-21T12:17:21;1.80;1.00
2825;DHT22;1420;51.324;12.344;2022-11-21T12:19:47;1.70;1.00
2825;DHT22;1420;51.324;12.344;2022-11-21T12:22:14;1.80;1.00
2825;DHT22;1420;51.324;12.344;2022-11-21T12:24:41;1.70;1.00
2825;DHT22;1420;51.324;12.344;2022-11-21T12:27:31;1.70;1.00
2825;DHT22;1420;51.324;12.344;2022-11-21T12:31:13;1.50;1.00
2825;DHT22;1420;51.324;12.344;2022-11-21T12:32:54;1.30;1.00
2825;DHT22;1420;51.324;12.344;2022-11-21T12:38:13;1.10;2.20
2825;DHT22;1420;51.324;12.344;2022-11-21T12:40:47;1.20;54.80
2825;DHT22;1420;51.324;12.344;2022-11-21T12:45:50;1.40;32.20
2825;DHT22;1420;51.324;12.344;2022-11-21T12:48:39;1.50;57.70
2825;DHT22;1420;51.324;12.344;2022-11-21T12:51:25;1.50;64.60
2825;DHT22;1420;51.324;12.344;2022-11-21T12:54:07;1.40;24.70
2825;DHT22;1420;51.324;12.344;2022-11-21T12:56:48;1.60;80.90
2825;DHT22;1420;51.324;12.344;2022-11-21T12:59:13;1.50;3.30
2825;DHT22;1420;51.324;12.344;2022-11-21T13:04:27;1.60;51.00
2825;DHT22;1420;51.324;12.344;2022-11-21T13:06:53;1.60;51.60
2825;DHT22;1420;51.324;12.344;2022-11-21T13:09:20;1.70;45.30
2825;DHT22;1420;51.324;12.344;2022-11-21T13:11:57;1.70;27.10
2825;DHT22;1420;51.324;12.344;2022-11-21T13:14:32;1.70;70.40
2825;DHT22;1420;51.324;12.344;2022-11-21T13:17:01;1.80;65.10
2825;DHT22;1420;51.324;12.344;2022-11-21T13:19:50;1.70;47.90
2825;DHT22;1420;51.324;12.344;2022-11-21T13:22:55;1.80;26.10
2825;DHT22;1420;51.324;12.344;2022-11-21T13:27:54;1.50;99.90
2825;DHT22;1420;51.324;12.344;2022-11-21T13:30:22;1.50;99.90
2825;DHT22;1420;51.324;12.344;2022-11-21T13:32:51;1.50;99.90
2825;DHT22;1420;51.324;12.344;2022-11-21T13:38:17;1.40;99.90
2825;DHT22;1420;51.324;12.344;2022-11-21T13:40:44;1.50;99.90
2825;DHT22;1420;51.324;12.344;2022-11-21T13:43:23;1.50;99.90
2825;DHT22;1420;51.324;12.344;2022-11-21T13:45:51;1.40;99.90
2825;DHT22;1420;51.324;12.344;2022-11-21T13:48:40;1.30;99.90
2825;DHT22;1420;51.324;12.344;2022-11-21T13:54:27;1.30;99.90
2825;DHT22;1420;51.324;12.344;2022-11-21T13:57:12;1.10;99.90
2825;DHT22;1420;51.324;12.344;2022-11-21T13:59:43;1.10;99.90
2825;DHT22;1420;51.324;12.344;2022-11-21T14:02:25;1.00;99.90
2825;DHT22;1420;51.324;12.344;2022-11-21T14:05:00;1.00;99.90
2825;DHT22;1420;51.324;12.344;2022-11-21T14:07:26;1.10;99.90
2825;DHT22;1420;51.324;12.344;2022-11-21T14:09:52;1.10;99.90
2825;DHT22;1420;51.324;12.344;2022-11-21T14:12:26;1.10;99.90
2825;DHT22;1420;51.324;12.344;2022-11-21T14:14:52;1.10;99.90
2825;DHT22;1420;51.324;12.344;2022-11-21T14:19:56;1.00;99.90
2825;DHT22;1420;51.324;12.344;2022-11-21T14:22:40;1.00;99.90
2825;DHT22;1420;51.324;12.344;2022-11-21T14:25:08;1.00;99.90
2825;DHT22;1420;51.324;12.344;2022-11-21T14:27:36;1.10;99.90
2825;DHT22;1420;51.324;12.344;2022-11-21T14:30:03;1.00;99.90
2825;DHT22;1420;51.324;12.344;2022-11-21T14:32:31;0.90;99.90
2825;DHT22;1420;51.324;12.344;2022-11-21T14:35:07;0.90;99.90
2825;DHT22;1420;51.324;12.344;2022-11-21T14:37:34;1.00;99.90
2825;DHT22;1420;51.324;12.344;2022-11-21T14:40:02;0.90;99.90
2825;DHT22;1420;51.324;12.344;2022-11-21T14:42:35;0.90;99.90
2825;DHT22;1420;51.324;12.344;2022-11-21T14:45:06;0.90;99.90
2825;DHT22;1420;51.324;12.344;2022-11-21T14:47:32;0.90;99.90
2825;DHT22;1420;51.324;12.344;2022-11-21T14:49:59;0.90;99.90
2825;DHT22;1420;51.324;12.344;2022-11-21T14:52:26;0.90;99.90
2825;DHT22;1420;51.324;12.344;2022-11-21T14:54:55;0.80;99.90
2825;DHT22;1420;51.324;12.344;2022-11-21T14:57:31;0.70;99.90
2825;DHT22;1420;51.324;12.344;2022-11-21T15:00:00;0.70;99.90
2825;DHT22;1420;51.324;12.344;2022-11-21T15:02:28;0.80;99.90
2825;DHT22;1420;51.324;12.344;2022-11-21T15:04:59;0.70;99.90
2825;DHT22;1420;51.324;12.344;2022-11-21T15:07:22;0.80;99.90
2825;DHT22;1420;51.324;12.344;2022-11-21T15:09:49;0.70;99.90
2825;DHT22;1420;51.324;12.344;2022-11-21T15:12:24;0.70;99.90
2825;DHT22;1420;51.324;12.344;2022-11-21T15:14:50;0.80;99.90
2825;DHT22;1420;51.324;12.344;2022-11-21T15:17:17;0.80;99.90
2825;DHT22;1420;51.324;12.344;2022-11-21T15:19:44;0.70;99.90
2825;DHT22;1420;51.324;12.344;2022-11-21T15:22:27;0.80;99.90
2825;DHT22;1420;51.324;12.344;2022-11-21T15:24:51;0.80;99.90
2825;DHT22;1420;51.324;12.344;2022-11-21T15:27:29;0.80;99.90
2825;DHT22;1420;51.324;12.344;2022-11-21T15:30:02;0.80;99.90
2825;DHT22;1420;51.324;12.344;2022-11-21T15:32:28;0.80;99.90
2825;DHT22;1420;51.324;12.344;2022-11-21T15:34:55;0.70;99.90
2825;DHT22;1420;51.324;12.344;2022-11-21T15:37:22;0.80;99.90
2825;DHT22;1420;51.324;12.344;2022-11-21T15:39:50;0.80;99.90
2825;DHT22;1420;51.324;12.344;2022-11-21T15:42:37;0.90;99.90
2825;DHT22;1420;51.324;12.344;2022-11-21T15:45:19;0.90;99.90
2825;DHT22;1420;51.324;12.344;2022-11-21T15:47:50;0.80;99.90
2825;DHT22;1420;51.324;12.344;2022-11-21T15:50:17;0.80;99.90
2825;DHT22;1420;51.324;12.344;2022-11-21T15:52:45;0.80;99.90
2825;DHT22;1420;51.324;12.344;2022-11-21T15:55:22;0.70;99.90
2825;DHT22;1420;51.324;12.344;2022-11-21T15:57:48;0.70;99.90
2825;DHT22;1420;51.324;12.344;2022-11-21T16:00:15;0.80;99.90
2825;DHT22;1420;51.324;12.344;2022-11-21T16:02:43;0.70;99.90
2825;DHT22;1420;51.324;12.344;2022-11-21T16:05:11;0.70;99.90
2825;DHT22;1420;51.324;12.344;2022-11-21T16:07:39;0.80;99.90
2825;DHT22;1420;51.324;12.344;2022-11-21T16:10:06;0.80;99.90
2825;DHT22;1420;51.324;12.344;2022-11-21T16:12:33;0.70;99.90
2825;DHT22;1420;51.324;12.344;2022-11-21T16:15:01;0.60;99.90
2825;DHT22;1420;51.324;12.344;2022-11-21T16:17:31;0.60;99.90
2825;DHT22;1420;51.324;12.344;2022-11-21T16:20:00;0.70;99.90
2825;DHT22;1420;51.324;12.344;2022-11-21T16:22:28;0.60;99.90
2825;DHT22;1420;51.324;12.344;2022-11-21T16:24:55;0.70;99.90
2825;DHT22;1420;51.324;12.344;2022-11-21T16:27:23;0.60;99.90
2825;DHT22;1420;51.324;12.344;2022-11-21T16:29:50;0.70;99.90
2825;DHT22;1420;51.324;12.344;2022-11-21T16:32:18;0.50;99.90
2825;DHT22;1420;51.324;12.344;2022-11-21T16:34:46;0.30;99.90
2825;DHT22;1420;51.324;12.344;2022-11-21T16:37:13;0.30;99.90
2825;DHT22;1420;51.324;12.344;2022-11-21T16:39:40;0.30;99.90